Time;durP1;ratioP1;P1;durP2;ratioP2;P2;SDS_P1;SDS_P2;PMS_P1;PMS_P2;Temp;Humidity;BMP_temperature;BMP_pressure;BME280_temperature;BME280_humidity;BME280_pressure;Samples;Min_cycle;Max_cycle;Signal;HPM_P1;HPM_P2
2021/09/05 00:02:19;;;;;;;31.00;18.38;;;;;;;16.33;80.04;101253.69;4951026;28;20047;-80
2021/09/05 00:04:46;;;;;;;29.40;17.00;;;;;;;16.32;80.27;101257.66;4934731;28;20047;-79
2021/09/05 00:07:13;;;;;;;31.00;19.20;;;;;;;16.33;80.08;101253.69;4938394;28;20115;-80
2021/09/05 00:09:41;;;;;;;34.20;16.77;;;;;;;16.34;80.06;101260.88;4952185;28;20094;-81
2021/09/05 00:12:09;;;;;;;28.00;17.83;;;;;;;16.33;79.93;101248.13;4933972;28;20050;-80
2021/09/05 00:14:36;;;;;;;33.05;15.82;;;;;;;16.30;79.86;101254.44;4949527;28;20047;-80
2021/09/05 00:17:03;;;;;;;32.55;18.92;;;;;;;16.26;79.92;101259.13;4948930;28;20791;-80
2021/09/05 00:19:30;;;;;;;32.47;18.00;;;;;;;16.25;80.06;101253.94;4948258;28;20061;-80
2021/09/05 00:21:56;;;;;;;35.83;18.58;;;;;;;16.18;79.85;101246.22;4934646;28;20074;-80
2021/09/05 00:24:23;;;;;;;32.03;20.30;;;;;;;16.11;80.07;101243.31;4949606;28;20495;-80
2021/09/05 00:26:50;;;;;;;38.20;21.02;;;;;;;16.05;80.06;101232.78;4935648;28;20047;-80
2021/09/05 00:29:17;;;;;;;35.97;21.90;;;;;;;16.02;80.07;101234.34;4935040;28;20077;-79
2021/09/05 00:31:44;;;;;;;35.28;20.58;;;;;;;16.00;80.22;101233.91;4951480;28;20514;-80
2021/09/05 00:34:11;;;;;;;36.65;21.70;;;;;;;15.97;80.26;101245.81;4950784;28;20046;-81
2021/09/05 00:36:37;;;;;;;37.90;20.60;;;;;;;15.94;80.32;101235.38;4935181;28;20035;-79
2021/09/05 00:39:06;;;;;;;46.88;23.48;;;;;;;15.90;80.63;101234.50;4917163;28;20499;-80
2021/09/05 00:41:33;;;;;;;35.30;21.02;;;;;;;15.90;80.78;101237.31;4952539;28;20155;-79
2021/09/05 00:44:06;;;;;;;36.03;21.00;;;;;;;15.91;80.87;101241.72;4924045;28;20057;-80
2021/09/05 00:46:34;;;;;;;34.08;19.23;;;;;;;15.93;80.66;101239.38;4949450;28;20039;-79
2021/09/05 00:49:01;;;;;;;34.50;19.45;;;;;;;15.96;81.03;101247.00;4950892;28;21798;-80
2021/09/05 00:51:31;;;;;;;27.70;16.70;;;;;;;16.01;80.90;101238.31;4950602;28;20509;-80
2021/09/05 00:53:59;;;;;;;31.75;18.70;;;;;;;16.01;81.00;101238.31;4936066;28;20076;-79
2021/09/05 00:56:29;;;;;;;33.00;19.33;;;;;;;16.02;81.21;101236.34;4948919;28;20040;-80
2021/09/05 00:58:59;;;;;;;33.85;18.95;;;;;;;16.05;81.02;101238.38;4951841;28;20043;-80
2021/09/05 01:01:26;;;;;;;31.50;18.80;;;;;;;16.04;81.04;101231.19;4950013;28;20040;-80
2021/09/05 01:03:53;;;;;;;28.70;16.92;;;;;;;16.03;81.22;101230.38;4933618;28;20094;-80
2021/09/05 01:06:20;;;;;;;33.50;18.02;;;;;;;16.05;81.15;101228.00;4950426;28;20055;-80
2021/09/05 01:08:48;;;;;;;32.55;18.40;;;;;;;16.07;81.36;101230.47;4951125;28;20047;-80
2021/09/05 01:11:16;;;;;;;29.88;15.65;;;;;;;16.08;81.17;101226.47;4933888;28;20047;-78
2021/09/05 01:13:43;;;;;;;27.48;15.98;;;;;;;16.06;81.14;101232.44;4953580;28;20062;-77
2021/09/05 01:16:26;;;;;;;28.60;16.40;;;;;;;16.04;81.02;101223.63;4949089;28;20042;-77
2021/09/05 01:18:53;;;;;;;32.00;17.88;;;;;;;16.04;80.83;101217.22;4950808;28;20075;-77
2021/09/05 01:21:21;;;;;;;32.83;18.05;;;;;;;16.02;80.68;101214.78;4948859;28;20055;-78
2021/09/05 01:23:48;;;;;;;26.83;16.52;;;;;;;16.02;80.52;101209.19;4949367;28;22001;-78
2021/09/05 01:26:16;;;;;;;27.10;15.93;;;;;;;16.01;80.81;101212.38;4950457;28;20118;-78
2021/09/05 01:28:42;;;;;;;27.75;15.77;;;;;;;16.00;80.87;101216.34;4949891;28;20051;-77
2021/09/05 01:31:09;;;;;;;29.65;15.57;;;;;;;16.01;80.60;101217.97;4949051;28;20518;-78
2021/09/05 01:33:36;;;;;;;31.05;18.40;;;;;;;16.00;80.58;101214.34;4933172;28;20054;-77
2021/09/05 01:36:03;;;;;;;33.20;19.38;;;;;;;15.98;80.32;101205.56;4948882;28;20039;-78
2021/09/05 01:38:32;;;;;;;28.33;17.05;;;;;;;15.95;80.58;101208.25;4949491;28;20053;-78
2021/09/05 01:40:59;;;;;;;29.73;16.02;;;;;;;15.94;80.61;101203.88;4947552;28;20403;-77
2021/09/05 01:43:26;;;;;;;32.20;17.00;;;;;;;15.93;80.68;101205.03;4933578;28;20053;-77
2021/09/05 01:45:54;;;;;;;27.48;16.83;;;;;;;15.91;80.74;101204.63;4949145;28;20419;-79
2021/09/05 01:48:21;;;;;;;25.33;14.52;;;;;;;15.88;80.55;101202.56;4931495;28;20061;-78
2021/09/05 01:50:48;;;;;;;25.20;13.93;;;;;;;15.86;80.58;101200.13;4936849;28;20046;-77
2021/09/05 01:53:15;;;;;;;30.67;16.45;;;;;;;15.85;80.66;101209.69;4936591;28;20391;-79
2021/09/05 01:55:41;;;;;;;24.67;14.82;;;;;;;15.81;80.60;101203.22;4933421;28;20047;-77
2021/09/05 01:58:08;;;;;;;27.23;14.40;;;;;;;15.81;80.64;101214.38;4947860;28;20047;-78
2021/09/05 02:00:35;;;;;;;25.15;14.68;;;;;;;15.80;80.61;101218.38;4931200;28;20510;-78
2021/09/05 02:03:03;;;;;;;22.92;15.40;;;;;;;15.80;80.74;101213.59;4946825;28;20047;-78
2021/09/05 02:05:31;;;;;;;25.05;15.38;;;;;;;15.82;80.49;101210.41;4958631;28;20546;-78
2021/09/05 02:07:58;;;;;;;24.73;14.85;;;;;;;15.80;80.69;101201.63;4919787;28;20083;-78
2021/09/05 02:10:25;;;;;;;27.25;15.40;;;;;;;15.79;80.67;101206.38;4948605;28;20057;-79
2021/09/05 02:12:52;;;;;;;28.50;14.43;;;;;;;15.79;80.68;101205.56;4948910;28;20039;-77
2021/09/05 02:15:18;;;;;;;23.63;13.90;;;;;;;15.82;80.75;101204.84;4931249;28;20063;-77
2021/09/05 02:17:45;;;;;;;25.10;15.27;;;;;;;15.82;80.78;101199.25;4949873;28;20165;-78
2021/09/05 02:20:12;;;;;;;28.33;13.35;;;;;;;15.81;80.85;101203.22;4948814;28;20042;-78
2021/09/05 02:22:40;;;;;;;25.30;14.23;;;;;;;15.79;80.95;101202.78;4949220;28;20043;-78
2021/09/05 02:25:08;;;;;;;26.55;14.73;;;;;;;15.79;80.89;101200.00;4949315;28;20054;-77
2021/09/05 02:27:35;;;;;;;25.65;14.68;;;;;;;15.78;81.10;101204.75;4934030;28;20047;-77
2021/09/05 02:30:02;;;;;;;26.40;14.00;;;;;;;15.80;81.00;101210.00;4937213;28;20133;-77
2021/09/05 02:32:29;;;;;;;25.25;14.13;;;;;;;15.79;80.91;101206.38;4949631;28;20075;-78
2021/09/05 02:34:55;;;;;;;23.80;13.35;;;;;;;15.78;80.96;101204.75;4949233;28;20059;-78
2021/09/05 02:37:22;;;;;;;22.58;12.77;;;;;;;15.79;81.08;101211.16;4949555;28;20089;-78
2021/09/05 02:39:49;;;;;;;24.67;12.88;;;;;;;15.78;80.92;101203.94;4932654;28;20043;-77
2021/09/05 02:42:15;;;;;;;20.48;12.23;;;;;;;15.75;81.01;101208.28;4933671;28;20047;-78
2021/09/05 02:44:42;;;;;;;25.45;14.32;;;;;;;15.74;81.03;101214.25;4949730;28;21016;-78
2021/09/05 02:47:09;;;;;;;24.05;12.88;;;;;;;15.75;80.91;101210.28;4949279;28;20410;-77
2021/09/05 02:49:35;;;;;;;25.10;14.02;;;;;;;15.73;81.08;101212.63;4933438;28;20051;-78
2021/09/05 02:52:02;;;;;;;23.75;13.55;;;;;;;15.72;81.13;101211.03;4948713;28;20043;-78
2021/09/05 02:54:29;;;;;;;26.08;14.32;;;;;;;15.69;81.07;101222.94;4948233;28;20101;-78
2021/09/05 02:56:56;;;;;;;25.65;13.85;;;;;;;15.65;81.15;101216.44;4950365;28;20058;-78
2021/09/05 02:59:23;;;;;;;22.40;12.50;;;;;;;15.59;81.31;101212.34;4959605;28;20118;-78
2021/09/05 03:01:49;;;;;;;25.10;13.75;;;;;;;15.56;81.38;101208.31;4927283;28;20412;-78
2021/09/05 03:04:16;;;;;;;25.13;13.80;;;;;;;15.55;81.09;101205.88;4930427;28;20138;-78
2021/09/05 03:06:43;;;;;;;19.95;13.32;;;;;;;15.54;81.32;101209.88;4950148;28;20051;-78
2021/09/05 03:09:10;;;;;;;29.70;13.18;;;;;;;15.51;81.40;101213.38;4931065;28;20070;-78
2021/09/05 03:11:36;;;;;;;22.73;12.40;;;;;;;15.48;81.29;101205.75;4948340;28;20068;-77
2021/09/05 03:14:04;;;;;;;27.67;12.88;;;;;;;15.46;81.35;101208.09;4931384;28;20043;-78
2021/09/05 03:16:31;;;;;;;24.85;13.32;;;;;;;15.45;81.33;101209.22;4948333;28;20051;-78
2021/09/05 03:18:58;;;;;;;17.95;11.90;;;;;;;15.43;81.42;101208.78;4932285;28;20065;-78
2021/09/05 03:21:24;;;;;;;21.23;12.30;;;;;;;15.38;81.53;101211.88;4946826;28;20044;-78
2021/09/05 03:23:51;;;;;;;24.08;12.55;;;;;;;15.37;81.55;101201.88;4931661;28;20491;-78
2021/09/05 03:26:18;;;;;;;18.02;10.45;;;;;;;15.36;81.51;101205.84;4948489;28;20046;-77
2021/09/05 03:28:45;;;;;;;27.58;12.60;;;;;;;15.36;81.66;101203.03;4948204;28;20046;-78
2021/09/05 03:31:11;;;;;;;20.27;11.43;;;;;;;15.38;81.56;101200.72;4947937;28;20047;-78
2021/09/05 03:33:38;;;;;;;24.98;11.20;;;;;;;15.40;81.60;101215.09;4932438;28;20046;-78
2021/09/05 03:36:05;;;;;;;21.95;10.77;;;;;;;15.43;81.54;101206.00;4947568;28;20499;-79
2021/09/05 03:38:32;;;;;;;18.45;9.88;;;;;;;15.46;81.49;101208.09;4948816;28;20086;-78
2021/09/05 03:40:59;;;;;;;25.73;10.23;;;;;;;15.46;81.43;101205.31;4931918;28;20061;-78
2021/09/05 03:43:26;;;;;;;17.55;9.50;;;;;;;15.48;81.06;101203.75;4935255;28;20047;-77
2021/09/05 03:45:52;;;;;;;28.05;10.85;;;;;;;15.48;81.22;101214.13;4950949;28;20050;-78
2021/09/05 03:48:19;;;;;;;29.42;11.77;;;;;;;15.49;81.35;101202.56;4935814;28;20043;-78
2021/09/05 03:50:46;;;;;;;22.70;10.15;;;;;;;15.50;81.18;101211.75;4951111;28;20050;-78
2021/09/05 03:53:12;;;;;;;17.55;9.68;;;;;;;15.49;80.99;101212.94;4935871;28;20077;-78
2021/09/05 03:55:39;;;;;;;21.40;10.23;;;;;;;15.48;81.01;101216.91;4952281;28;20074;-78
2021/09/05 03:58:07;;;;;;;18.60;10.93;;;;;;;15.48;81.08;101214.13;4952925;28;20074;-78
2021/09/05 04:00:34;;;;;;;18.88;10.18;;;;;;;15.49;80.83;101222.09;4951825;28;20079;-78
2021/09/05 04:03:01;;;;;;;20.92;9.35;;;;;;;15.49;81.07;101224.13;4950929;28;20046;-78
2021/09/05 04:05:28;;;;;;;16.65;10.07;;;;;;;15.49;80.99;101224.13;4949856;28;20078;-79
2021/09/05 04:10:28;;;;;;;21.73;12.15;;;;;;;15.50;80.92;101225.72;4951691;28;20126;-77
2021/09/05 04:12:57;;;;;;;21.05;10.27;;;;;;;15.50;80.89;101228.50;4935699;28;20047;-77
2021/09/05 04:15:23;;;;;;;18.38;9.68;;;;;;;15.48;80.77;101231.66;4951161;28;20777;-78
2021/09/05 04:17:50;;;;;;;18.15;10.15;;;;;;;15.47;80.86;101232.03;4951074;28;20522;-81
2021/09/05 04:20:18;;;;;;;22.80;11.13;;;;;;;15.46;80.67;101225.63;4951919;28;20035;-79
2021/09/05 04:22:45;;;;;;;22.75;11.20;;;;;;;15.47;80.67;101229.22;4950805;28;20114;-78
2021/09/05 04:25:12;;;;;;;17.08;9.98;;;;;;;15.45;80.72;101226.78;4935933;28;20047;-79
2021/09/05 04:27:40;;;;;;;18.33;9.98;;;;;;;15.43;80.76;101229.13;4921319;28;20058;-78
2021/09/05 04:30:09;;;;;;;17.15;10.00;;;;;;;15.40;80.89;101221.50;4933990;28;20055;-78
2021/09/05 04:32:37;;;;;;;18.17;9.40;;;;;;;15.41;80.81;101225.09;4948973;28;20047;-78
2021/09/05 04:35:04;;;;;;;16.67;10.52;;;;;;;15.43;80.76;101222.75;4949623;28;20046;-78
2021/09/05 04:37:32;;;;;;;20.58;11.20;;;;;;;15.40;80.69;101227.09;4953081;28;20061;-80
2021/09/05 04:39:59;;;;;;;34.05;12.50;;;;;;;15.40;80.56;101238.25;4953568;28;20160;-78
2021/09/05 04:42:26;;;;;;;22.35;11.38;;;;;;;15.40;80.69;101231.84;4949886;28;20043;-78
2021/09/05 04:44:53;;;;;;;24.30;10.70;;;;;;;15.36;80.82;101230.94;4950076;28;20054;-78
2021/09/05 04:47:20;;;;;;;16.10;9.30;;;;;;;15.31;80.77;101234.84;4934600;28;20095;-77
2021/09/05 04:49:47;;;;;;;20.05;9.88;;;;;;;15.31;80.85;101245.19;4950958;28;20526;-81
2021/09/05 04:52:14;;;;;;;20.13;10.77;;;;;;;15.32;80.73;101241.22;4949924;28;20058;-78
2021/09/05 04:54:40;;;;;;;19.38;10.18;;;;;;;15.33;80.87;101248.44;4935081;28;20051;-78
2021/09/05 04:57:07;;;;;;;22.55;11.18;;;;;;;15.32;80.88;101247.63;4932991;28;20043;-78
2021/09/05 04:59:34;;;;;;;19.55;10.32;;;;;;;15.33;80.71;101234.50;4951438;28;20043;-78
2021/09/05 05:02:00;;;;;;;21.17;12.15;;;;;;;15.32;80.78;101233.69;4948355;28;20039;-78
2021/09/05 05:04:28;;;;;;;26.48;10.60;;;;;;;15.31;80.72;101236.81;4948527;28;20054;-79
2021/09/05 05:06:55;;;;;;;22.23;11.30;;;;;;;15.30;80.49;101232.44;4951809;28;20047;-78
2021/09/05 05:09:21;;;;;;;21.05;12.32;;;;;;;15.29;80.63;101230.81;4949036;28;20062;-78
2021/09/05 05:11:48;;;;;;;20.75;10.45;;;;;;;15.29;80.61;101230.81;4933964;28;20051;-79
2021/09/05 05:14:15;;;;;;;21.25;11.25;;;;;;;15.25;80.56;101237.09;4950090;28;20039;-79
2021/09/05 05:16:42;;;;;;;24.73;10.40;;;;;;;15.23;80.73;101225.50;4951104;28;20570;-79
2021/09/05 05:19:08;;;;;;;19.67;10.45;;;;;;;15.19;80.68;101233.00;4949795;28;20049;-78
2021/09/05 05:21:35;;;;;;;21.77;10.30;;;;;;;15.16;80.67;101228.16;4948886;28;20046;-79
2021/09/05 05:24:02;;;;;;;18.55;10.45;;;;;;;15.14;80.69;101236.06;4950899;28;20049;-78
2021/09/05 05:26:29;;;;;;;16.55;10.15;;;;;;;15.11;80.87;101236.81;4951079;28;20739;-78
2021/09/05 05:28:57;;;;;;;17.05;10.75;;;;;;;15.08;80.82;101240.31;4917048;28;21882;-78
2021/09/05 05:31:24;;;;;;;17.90;10.35;;;;;;;15.07;80.97;101246.25;4948484;28;20505;-78
2021/09/05 05:33:51;;;;;;;21.05;10.32;;;;;;;15.04;81.42;101252.53;4949484;28;20043;-79
2021/09/05 05:36:17;;;;;;;19.65;13.27;;;;;;;15.02;81.19;101252.91;4950185;28;20049;-78
2021/09/05 05:38:44;;;;;;;19.13;10.35;;;;;;;15.00;81.28;101246.91;4946839;28;20136;-78
2021/09/05 05:41:13;;;;;;;20.02;11.65;;;;;;;15.00;81.21;101246.09;4933674;28;20050;-78
2021/09/05 05:43:39;;;;;;;21.10;11.85;;;;;;;14.99;81.36;101250.84;4933090;28;20059;-79
2021/09/05 05:46:06;;;;;;;19.55;11.23;;;;;;;14.99;81.30;101247.25;4935778;28;20043;-78
2021/09/05 05:48:33;;;;;;;17.58;10.57;;;;;;;14.98;81.21;101249.25;4947976;28;20060;-79
2021/09/05 05:51:00;;;;;;;21.17;11.23;;;;;;;14.99;81.22;101262.00;4949088;28;20479;-78
2021/09/05 05:53:26;;;;;;;18.92;10.90;;;;;;;14.98;81.17;101257.63;4950894;28;20046;-78
2021/09/05 05:55:53;;;;;;;16.42;9.57;;;;;;;15.01;81.27;101272.81;4934135;28;20149;-78
2021/09/05 05:58:21;;;;;;;19.27;10.43;;;;;;;15.01;81.28;101267.22;4950508;28;20414;-79
2021/09/05 06:01:06;;;;;;;21.60;10.45;;;;;;;15.02;81.24;101266.84;4934703;28;20082;-78
2021/09/05 06:03:36;;;;;;;23.48;10.88;;;;;;;15.03;81.32;101274.06;4934284;28;20050;-78
2021/09/05 06:06:04;;;;;;;19.95;10.75;;;;;;;15.04;81.31;101275.66;4930153;28;20402;-78
2021/09/05 06:08:31;;;;;;;18.08;11.32;;;;;;;15.06;81.50;101273.31;4930523;28;20047;-78
2021/09/05 06:10:57;;;;;;;22.88;10.65;;;;;;;15.09;81.48;101278.16;4948316;28;20130;-78
2021/09/05 06:13:24;;;;;;;20.75;10.77;;;;;;;15.12;81.49;101283.03;4920430;28;20054;-78
2021/09/05 06:15:51;;;;;;;25.05;11.25;;;;;;;15.16;81.48;101283.13;4948686;28;20146;-78
2021/09/05 06:18:17;;;;;;;24.67;11.73;;;;;;;15.20;81.69;101290.38;4950050;28;20079;-78
2021/09/05 06:20:44;;;;;;;16.85;10.23;;;;;;;15.25;81.36;101292.91;4947334;28;20991;-79
2021/09/05 06:23:11;;;;;;;17.13;10.10;;;;;;;15.31;81.19;101289.81;4950422;28;20550;-78
2021/09/05 06:25:38;;;;;;;25.13;11.57;;;;;;;15.38;81.35;101295.59;4949553;28;20051;-77
2021/09/05 06:28:05;;;;;;;21.42;10.65;;;;;;;15.44;81.04;101294.09;4933516;28;20134;-78
2021/09/05 06:30:32;;;;;;;19.80;9.70;;;;;;;15.51;81.23;101297.09;4950539;28;20642;-78
2021/09/05 06:32:59;;;;;;;22.60;11.05;;;;;;;15.55;81.21;101295.19;4948505;28;20035;-78
2021/09/05 06:35:26;;;;;;;16.75;10.48;;;;;;;15.61;80.99;101296.53;4949292;28;20070;-78
2021/09/05 06:37:52;;;;;;;23.20;11.27;;;;;;;15.65;80.83;101295.41;4948411;28;20054;-79
2021/09/05 06:40:19;;;;;;;22.38;11.35;;;;;;;15.73;80.70;101301.94;4932047;28;20523;-78
2021/09/05 06:42:46;;;;;;;21.02;12.00;;;;;;;15.78;80.52;101298.88;4947675;28;20047;-78
2021/09/05 06:45:13;;;;;;;22.58;11.40;;;;;;;15.83;80.55;101301.41;4929374;28;20066;-79
2021/09/05 06:47:39;;;;;;;18.75;10.45;;;;;;;15.89;80.32;101299.09;4932564;28;20046;-78
2021/09/05 06:50:07;;;;;;;27.52;12.27;;;;;;;15.93;80.48;101306.38;4948267;28;20039;-79
2021/09/05 06:52:34;;;;;;;17.92;10.68;;;;;;;15.96;80.27;101305.66;4934292;28;20055;-78
2021/09/05 06:55:01;;;;;;;20.65;11.80;;;;;;;16.01;80.07;101312.91;4933068;28;20043;-78
2021/09/05 06:57:29;;;;;;;26.27;12.80;;;;;;;16.08;79.92;101318.63;4933523;28;20051;-79
2021/09/05 06:59:55;;;;;;;14.38;10.18;;;;;;;16.16;79.86;101321.22;4942819;28;20096;-79
2021/09/05 07:02:22;;;;;;;21.48;11.15;;;;;;;16.24;79.71;101322.97;4948470;28;20044;-78
2021/09/05 07:04:49;;;;;;;19.08;10.65;;;;;;;16.34;79.59;101316.78;4950322;28;20372;-79
2021/09/05 07:07:36;;;;;;;24.38;11.07;;;;;;;16.47;79.30;101319.41;4950236;28;20875;-78
2021/09/05 07:10:03;;;;;;;20.13;10.93;;;;;;;16.55;79.45;101326.78;4934932;28;20050;-78
2021/09/05 07:12:31;;;;;;;22.42;11.77;;;;;;;16.63;79.27;101334.09;4950132;28;20049;-78
2021/09/05 07:14:57;;;;;;;30.52;11.48;;;;;;;16.71;78.89;101342.25;4952188;28;20497;-78
2021/09/05 07:17:24;;;;;;;31.88;11.68;;;;;;;16.78;78.64;101336.00;4931053;28;20051;-78
2021/09/05 07:19:51;;;;;;;21.02;11.65;;;;;;;16.85;78.68;101336.09;4952252;28;20039;-78
2021/09/05 07:22:19;;;;;;;15.35;10.25;;;;;;;16.93;78.58;101343.44;4951915;28;20043;-78
2021/09/05 07:24:46;;;;;;;20.58;10.85;;;;;;;16.98;78.21;101335.53;4919972;28;20055;-78
2021/09/05 07:27:13;;;;;;;16.83;9.38;;;;;;;17.04;78.16;101341.63;4949366;28;20057;-79
2021/09/05 07:29:39;;;;;;;19.88;10.73;;;;;;;17.11;77.91;101357.72;4948221;28;20047;-78
2021/09/05 07:32:06;;;;;;;18.35;10.65;;;;;;;17.16;77.95;101349.00;4961296;28;20057;-79
2021/09/05 07:34:34;;;;;;;22.10;11.40;;;;;;;17.19;77.49;101357.47;4937280;28;20487;-79
2021/09/05 07:37:01;;;;;;;21.55;12.18;;;;;;;17.18;77.25;101350.25;4935730;28;20142;-80
2021/09/05 07:39:28;;;;;;;19.55;11.25;;;;;;;17.18;77.24;101355.84;4944711;28;20081;-80
2021/09/05 07:41:54;;;;;;;23.42;10.95;;;;;;;17.19;77.31;101357.47;4951776;28;20055;-81
2021/09/05 07:44:21;;;;;;;19.88;10.45;;;;;;;17.17;76.79;101345.84;4949437;28;20051;-81
2021/09/05 07:46:48;;;;;;;24.13;13.05;;;;;;;17.17;77.00;101350.63;4952152;28;20138;-79
2021/09/05 07:49:15;;;;;;;19.77;10.88;;;;;;;17.20;77.10;101355.47;4933564;28;20070;-79
2021/09/05 07:51:41;;;;;;;21.17;11.35;;;;;;;17.22;76.73;101351.13;4951371;28;20047;-80
2021/09/05 07:54:08;;;;;;;17.42;10.48;;;;;;;17.23;76.63;101349.94;4951981;28;20047;-80
2021/09/05 07:56:35;;;;;;;18.98;11.30;;;;;;;17.25;76.74;101357.94;4921304;28;20138;-79
2021/09/05 07:59:02;;;;;;;23.10;11.60;;;;;;;17.27;76.94;101345.19;4936551;28;20134;-79
2021/09/05 08:01:29;;;;;;;26.92;11.82;;;;;;;17.31;76.54;101348.88;4950047;28;20487;-79
2021/09/05 08:03:56;;;;;;;26.30;13.18;;;;;;;17.36;76.55;101356.94;4937903;28;20146;-80
2021/09/05 08:06:25;;;;;;;18.35;12.85;;;;;;;17.38;76.47;101356.56;4935852;28;20086;-78
2021/09/05 08:08:52;;;;;;;22.52;13.30;;;;;;;17.41;76.35;101348.22;4946231;28;20075;-79
2021/09/05 08:11:19;;;;;;;19.48;12.50;;;;;;;17.41;76.07;101356.63;4950690;28;20387;-80
2021/09/05 08:13:45;;;;;;;23.27;13.45;;;;;;;17.45;76.17;101351.88;4948798;28;20043;-78
2021/09/05 08:16:12;;;;;;;25.15;12.75;;;;;;;17.51;76.17;101341.97;4951371;28;20062;-79
2021/09/05 08:18:39;;;;;;;24.38;13.20;;;;;;;17.58;76.03;101352.47;4935099;28;20130;-79
2021/09/05 08:21:07;;;;;;;20.35;13.25;;;;;;;17.62;75.77;101358.97;4950326;28;20058;-79
2021/09/05 08:23:37;;;;;;;25.10;13.20;;;;;;;17.66;75.84;101347.81;4954008;28;20124;-79
2021/09/05 08:26:05;;;;;;;21.13;12.60;;;;;;;17.68;75.82;101351.03;4935405;28;20309;-79
2021/09/05 08:28:32;;;;;;;27.10;13.85;;;;;;;17.73;75.72;101354.31;4950791;28;20059;-79
2021/09/05 08:31:00;;;;;;;22.20;13.65;;;;;;;17.78;75.63;101353.16;4947610;28;20039;-79
2021/09/05 08:33:29;;;;;;;26.98;13.60;;;;;;;17.82;75.52;101351.25;4950927;28;20054;-80
2021/09/05 08:35:55;;;;;;;30.30;13.73;;;;;;;17.84;75.25;101341.28;4939503;28;20077;-79
2021/09/05 08:38:22;;;;;;;18.08;12.40;;;;;;;17.87;75.42;101353.72;4953286;28;20062;-79
2021/09/05 08:40:50;;;;;;;35.53;15.07;;;;;;;17.92;75.21;101345.78;4934063;28;20069;-79
2021/09/05 08:43:20;;;;;;;23.90;13.40;;;;;;;17.97;75.32;101344.63;4951520;28;20461;-79
2021/09/05 08:45:48;;;;;;;24.35;14.00;;;;;;;17.95;74.97;101349.81;4960868;28;20058;-79
2021/09/05 08:48:17;;;;;;;22.67;13.77;;;;;;;17.94;75.09;101348.19;4953345;28;20043;-80
2021/09/05 08:50:46;;;;;;;24.08;13.18;;;;;;;17.96;74.81;101346.63;4951225;28;20045;-79
2021/09/05 08:53:13;;;;;;;24.33;15.38;;;;;;;17.92;74.94;101344.97;4948718;28;20040;-78
2021/09/05 08:55:40;;;;;;;21.92;13.38;;;;;;;17.92;74.70;101342.97;4935443;28;20057;-79
2021/09/05 08:58:07;;;;;;;25.40;13.75;;;;;;;17.94;74.81;101349.00;4937060;28;20039;-79
2021/09/05 09:00:34;;;;;;;22.98;13.75;;;;;;;18.02;74.99;101347.09;4935520;28;20059;-79
2021/09/05 09:03:02;;;;;;;24.73;15.18;;;;;;;18.08;74.73;101337.19;4951314;28;20039;-79
2021/09/05 09:05:35;;;;;;;22.90;14.52;;;;;;;18.19;74.96;101343.69;4949450;28;20066;-79
2021/09/05 09:08:07;;;;;;;55.13;17.83;;;;;;;18.30;74.61;101341.00;4917571;28;20467;-82
2021/09/05 09:10:48;;;;;;;23.30;14.43;;;;;;;18.41;74.36;101339.94;4951573;28;20059;-79
2021/09/05 09:13:23;;;;;;;24.45;14.45;;;;;;;18.54;74.32;101344.13;4949342;28;20122;-81
2021/09/05 09:15:50;;;;;;;23.65;14.13;;;;;;;18.70;74.36;101341.06;4933398;28;20130;-79
2021/09/05 09:18:29;;;;;;;27.55;15.00;;;;;;;18.77;72.59;101341.16;4948357;28;20045;-79
2021/09/05 09:20:58;;;;;;;25.60;15.43;;;;;;;18.90;73.68;101336.06;4949681;28;20565;-79
2021/09/05 09:23:28;;;;;;;28.30;15.57;;;;;;;19.11;73.66;101339.88;4933259;28;20051;-79
2021/09/05 09:25:57;;;;;;;25.83;15.13;;;;;;;19.52;73.28;101345.38;4950518;28;20475;-80
2021/09/05 09:28:36;;;;;;;24.63;14.75;;;;;;;20.00;72.75;101346.88;4952020;28;20039;-79
2021/09/05 09:31:21;;;;;;;28.17;15.15;;;;;;;20.67;70.75;101343.50;4947917;28;20043;-80
2021/09/05 09:33:53;;;;;;;26.23;14.45;;;;;;;21.20;69.24;101342.34;4948779;28;20492;-80
2021/09/05 09:36:23;;;;;;;25.38;15.57;;;;;;;21.66;69.65;101347.91;4943458;28;20137;-80
2021/09/05 09:38:58;;;;;;;31.38;15.35;;;;;;;22.09;67.81;101342.97;4947769;28;20049;-80
2021/09/05 09:41:40;;;;;;;26.27;16.40;;;;;;;22.42;66.30;101350.84;4949799;28;21356;-79
2021/09/05 09:44:09;;;;;;;29.98;16.75;;;;;;;22.71;65.90;101350.72;4933441;28;20488;-81
2021/09/05 09:46:38;;;;;;;27.70;15.73;;;;;;;22.84;64.89;101344.19;4949395;28;20082;-80
2021/09/05 09:49:10;;;;;;;27.80;14.45;;;;;;;22.93;63.18;101357.81;4947965;28;20149;-78
2021/09/05 09:51:38;;;;;;;18.88;13.90;;;;;;;23.04;63.40;101350.06;4939329;28;20172;-79
2021/09/05 09:54:05;;;;;;;27.13;14.85;;;;;;;23.21;63.39;101351.16;4943252;28;20051;-79
2021/09/05 09:56:33;;;;;;;25.63;14.75;;;;;;;23.35;62.36;101346.16;4925971;28;20043;-79
2021/09/05 09:59:02;;;;;;;24.00;13.23;;;;;;;23.35;62.14;101346.16;4945515;28;20581;-81
2021/09/05 10:01:31;;;;;;;22.00;14.75;;;;;;;23.30;61.85;101348.66;4931453;28;20043;-81
2021/09/05 10:04:01;;;;;;;24.15;15.05;;;;;;;23.24;61.45;101351.13;4942265;28;20476;-83
2021/09/05 10:06:33;;;;;;;29.35;18.48;;;;;;;23.26;61.23;101348.69;4945468;28;20055;-81
2021/09/05 10:09:07;;;;;;;30.35;16.88;;;;;;;23.33;61.38;101359.09;4945430;28;20053;-81
2021/09/05 10:11:36;;;;;;;29.88;15.85;;;;;;;23.43;60.94;101352.59;4940771;28;20122;-80
2021/09/05 10:14:04;;;;;;;27.52;16.63;;;;;;;23.44;60.76;101355.00;4939947;28;20696;-80
2021/09/05 10:16:31;;;;;;;25.40;15.05;;;;;;;23.53;60.64;101358.16;4925832;29;20063;-80
2021/09/05 10:19:02;;;;;;;24.65;14.70;;;;;;;23.59;60.18;101350.00;4945082;28;20062;-81
2021/09/05 10:21:30;;;;;;;22.58;15.10;;;;;;;23.83;60.06;101354.59;4937528;28;20039;-81
2021/09/05 10:23:58;;;;;;;32.28;17.25;;;;;;;24.06;59.29;101340.59;4950404;28;20135;-81
2021/09/05 10:26:25;;;;;;;22.42;15.60;;;;;;;24.13;59.32;101343.34;4949967;28;20396;-81
2021/09/05 10:28:58;;;;;;;27.35;17.88;;;;;;;24.29;58.97;101348.41;4931889;28;20519;-81
2021/09/05 10:31:29;;;;;;;26.05;15.65;;;;;;;24.16;58.78;101351.00;4933058;28;20043;-81
2021/09/05 10:33:57;;;;;;;30.03;19.10;;;;;;;23.95;58.87;101344.75;4932907;28;20039;-81
2021/09/05 10:36:26;;;;;;;24.80;16.63;;;;;;;23.68;59.08;101357.97;4948782;28;20290;-81
2021/09/05 10:39:05;;;;;;;23.90;16.17;;;;;;;23.68;58.84;101360.81;4950541;28;20498;-80
2021/09/05 10:41:32;;;;;;;22.77;15.65;;;;;;;23.73;59.07;101354.69;4947350;28;20049;-81
2021/09/05 10:43:58;;;;;;;29.90;18.75;;;;;;;23.62;59.48;101366.94;4951546;28;20091;-83
2021/09/05 10:46:31;;;;;;;34.63;20.00;;;;;;;23.62;59.07;101357.63;4951663;28;20071;-81
2021/09/05 10:49:00;;;;;;;33.10;20.15;;;;;;;23.57;59.18;101355.28;4949716;28;20439;-81
2021/09/05 10:51:33;;;;;;;33.92;20.92;;;;;;;23.41;59.19;101361.47;4947953;28;20083;-82
2021/09/05 10:54:06;;;;;;;31.95;20.60;;;;;;;23.39;59.50;101358.28;4954082;28;20055;-85
2021/09/05 10:56:44;;;;;;;32.05;20.08;;;;;;;23.26;59.38;101365.63;4933845;29;20403;-80
2021/09/05 10:59:16;;;;;;;30.15;20.23;;;;;;;23.17;59.63;101358.84;4937952;28;20071;-80
2021/09/05 11:01:46;;;;;;;31.08;19.40;;;;;;;23.09;60.08;101366.56;4956753;28;20043;-81
2021/09/05 11:04:16;;;;;;;27.55;18.45;;;;;;;23.07;59.89;101362.56;4953557;28;20054;-82
2021/09/05 11:06:44;;;;;;;26.73;19.98;;;;;;;23.06;60.26;101355.31;4936566;29;20074;-81
2021/09/05 11:09:20;;;;;;;28.13;19.52;;;;;;;23.02;60.03;101363.81;4958821;28;20074;-81
2021/09/05 11:12:12;;;;;;;30.63;18.92;;;;;;;22.90;60.24;101364.31;4954637;28;20462;-81
2021/09/05 11:14:46;;;;;;;27.17;17.30;;;;;;;22.77;60.66;101360.38;4955077;28;20039;-81
2021/09/05 11:17:20;;;;;;;40.42;20.40;;;;;;;22.70;60.89;101354.75;4958120;28;20051;-81